Time;durP1;ratioP1;P1;durP2;ratioP2;P2;SDS_P1;SDS_P2;PMS_P1;PMS_P2;Temp;Humidity;BMP_temperature;BMP_pressure;BME280_temperature;BME280_humidity;BME280_pressure;Samples;Min_cycle;Max_cycle;Signal;HPM_P1;HPM_P2
2023/11/26 00:02:39;;;;;;;3.13;1.30;;;;;;;0.49;70.42;98483.88;6197313;28;20054;-73
2023/11/26 00:05:42;;;;;;;1.55;1.35;;;;;;;0.56;69.15;98480.16;6197160;28;20054;-72
2023/11/26 00:08:43;;;;;;;1.23;1.15;;;;;;;0.66;68.90;98483.13;6200520;28;20054;-73
2023/11/26 00:11:45;;;;;;;1.05;0.90;;;;;;;0.72;67.89;98478.56;6202818;28;20105;-72
2023/11/26 00:14:46;;;;;;;5.20;1.48;;;;;;;0.63;68.18;98484.09;6202648;28;20173;-72
2023/11/26 00:17:47;;;;;;;2.42;1.40;;;;;;;0.82;67.51;98470.41;6202112;28;20082;-72
2023/11/26 00:20:48;;;;;;;2.05;1.10;;;;;;;0.84;67.43;98473.75;6202544;28;20051;-76
2023/11/26 00:23:49;;;;;;;3.17;1.40;;;;;;;-0.27;69.99;98489.72;6202047;28;20062;-76
2023/11/26 00:26:50;;;;;;;1.23;1.13;;;;;;;-0.55;72.74;98497.72;6201655;28;20069;-73
2023/11/26 00:29:51;;;;;;;5.57;2.10;;;;;;;-0.70;74.38;98499.16;6202677;28;20062;-76
2023/11/26 00:32:52;;;;;;;3.13;1.77;;;;;;;-0.68;74.95;98501.66;6202944;28;20054;-73
2023/11/26 00:35:53;;;;;;;1.45;1.35;;;;;;;-0.80;75.54;98508.09;6202607;28;20053;-76
2023/11/26 00:38:54;;;;;;;2.83;1.85;;;;;;;-0.92;76.02;98508.59;6202540;28;20421;-76
2023/11/26 00:41:56;;;;;;;3.97;1.77;;;;;;;-0.90;76.74;98504.25;6201419;28;20050;-73
2023/11/26 00:44:57;;;;;;;3.83;1.70;;;;;;;-0.78;76.41;98508.03;6201554;28;20046;-74
2023/11/26 00:47:58;;;;;;;3.55;1.70;;;;;;;-0.80;76.53;98518.34;6201043;28;20058;-73
2023/11/26 00:50:59;;;;;;;3.20;1.88;;;;;;;-0.94;77.14;98516.31;6201470;28;20053;-73
2023/11/26 00:54:00;;;;;;;3.08;2.00;;;;;;;-1.11;77.63;98516.13;6202459;28;20051;-72
2023/11/26 00:57:01;;;;;;;3.40;1.88;;;;;;;-1.24;77.90;98531.94;6200654;28;20061;-74
2023/11/26 01:00:05;;;;;;;4.72;2.42;;;;;;;-1.11;78.20;98528.91;6202520;28;20046;-75
2023/11/26 01:03:07;;;;;;;3.10;1.80;;;;;;;-1.09;78.03;98519.44;6201831;28;20090;-75
2023/11/26 01:06:11;;;;;;;2.63;1.73;;;;;;;-0.04;75.48;98518.69;6200364;28;20046;-72
2023/11/26 01:09:12;;;;;;;7.45;2.55;;;;;;;0.37;72.45;98516.06;6200910;28;20108;-72
2023/11/26 01:12:16;;;;;;;4.30;1.90;;;;;;;0.48;71.20;98503.59;6200999;28;20054;-76
2023/11/26 01:15:18;;;;;;;3.15;1.73;;;;;;;0.67;70.72;98511.28;6201633;28;20405;-75
2023/11/26 01:18:19;;;;;;;4.50;2.65;;;;;;;0.55;70.40;98511.84;6199516;28;20802;-76
2023/11/26 01:21:19;;;;;;;3.70;1.67;;;;;;;0.10;70.11;98515.53;6200453;28;20196;-76
2023/11/26 01:24:20;;;;;;;6.90;2.60;;;;;;;-1.06;75.08;98521.91;6200439;28;20493;-76
2023/11/26 01:27:21;;;;;;;2.67;1.88;;;;;;;-1.40;76.75;98528.31;6201545;28;20050;-73
2023/11/26 01:30:22;;;;;;;4.97;2.38;;;;;;;-1.38;77.98;98523.09;6200139;28;20054;-72
2023/11/26 01:33:23;;;;;;;6.63;1.83;;;;;;;-1.50;78.07;98524.41;6201165;28;20081;-72
2023/11/26 01:36:24;;;;;;;4.85;2.70;;;;;;;-1.42;79.18;98525.78;6201242;28;20104;-72
2023/11/26 01:39:27;;;;;;;3.70;2.53;;;;;;;-1.54;78.81;98533.09;6201015;28;20058;-71
2023/11/26 01:42:31;;;;;;;3.05;2.10;;;;;;;-1.63;78.91;98529.09;6199830;28;20441;-73
2023/11/26 01:45:34;;;;;;;3.75;2.50;;;;;;;-1.44;79.29;98516.50;6201010;28;20070;-75
2023/11/26 01:48:36;;;;;;;2.78;1.55;;;;;;;-1.37;79.43;98523.06;6200602;28;20397;-75
2023/11/26 01:51:38;;;;;;;2.25;2.05;;;;;;;-1.52;78.59;98528.75;6200657;28;20479;-75
2023/11/26 01:54:42;;;;;;;3.83;2.17;;;;;;;-1.42;78.81;98527.53;6198673;28;20058;-72
2023/11/26 01:57:44;;;;;;;5.35;1.65;;;;;;;-1.60;79.10;98521.34;6198934;28;20054;-75
2023/11/26 02:00:46;;;;;;;2.08;1.45;;;;;;;-1.45;78.75;98523.31;6199195;28;20124;-75
2023/11/26 02:03:49;;;;;;;3.90;2.10;;;;;;;-1.49;78.12;98521.78;6198132;28;20078;-75
2023/11/26 02:06:53;;;;;;;2.67;2.22;;;;;;;-1.51;78.05;98533.78;6198545;28;20049;-76
2023/11/26 02:09:54;;;;;;;2.92;1.90;;;;;;;-1.43;78.91;98539.47;6199307;28;20058;-75
2023/11/26 02:13:05;;;;;;;2.60;1.75;;;;;;;-1.28;77.79;98532.94;6199953;28;20053;-75
2023/11/26 02:16:07;;;;;;;3.53;1.88;;;;;;;-1.36;77.83;98537.53;6198873;28;20125;-75
2023/11/26 02:19:38;;;;;;;6.38;2.72;;;;;;;-1.48;77.19;98546.47;6200234;28;20090;-73
2023/11/26 02:22:39;;;;;;;3.45;2.35;;;;;;;-1.54;78.04;98540.75;6199145;28;20500;-72
2023/11/26 02:25:39;;;;;;;5.95;2.33;;;;;;;-1.67;77.62;98551.44;6198996;28;20095;-73
2023/11/26 02:28:41;;;;;;;2.70;1.83;;;;;;;-1.64;78.29;98555.59;6199667;28;20046;-72
2023/11/26 02:31:42;;;;;;;2.97;1.70;;;;;;;-1.63;78.64;98557.25;6199012;28;20047;-73
2023/11/26 02:34:43;;;;;;;2.08;1.63;;;;;;;-1.49;77.94;98572.13;6198479;28;20385;-75
2023/11/26 02:37:43;;;;;;;2.65;1.80;;;;;;;-1.44;77.89;98577.91;6198662;28;20059;-75
2023/11/26 02:40:48;;;;;;;2.97;1.90;;;;;;;-1.60;77.48;98581.91;6199580;28;20054;-75
2023/11/26 02:43:49;;;;;;;2.72;1.85;;;;;;;-1.53;77.65;98575.66;6199870;28;20112;-75
2023/11/26 02:46:50;;;;;;;3.13;1.73;;;;;;;-1.52;77.45;98578.19;6198167;28;20046;-71
2023/11/26 02:49:53;;;;;;;3.72;2.80;;;;;;;-1.69;78.50;98588.16;6199437;28;20459;-75
2023/11/26 02:53:00;;;;;;;2.78;1.77;;;;;;;-1.70;78.47;98595.00;6192695;28;20121;-75
2023/11/26 02:56:01;;;;;;;3.45;1.67;;;;;;;-1.79;78.70;98595.31;6175120;28;20047;-72
2023/11/26 02:59:02;;;;;;;3.20;2.13;;;;;;;-1.72;78.81;98596.78;6175117;28;20066;-75
2023/11/26 03:02:03;;;;;;;5.45;2.13;;;;;;;-1.79;78.65;98590.22;6173644;28;20106;-74
2023/11/26 03:05:15;;;;;;;4.77;2.30;;;;;;;-1.93;79.14;98594.97;6175230;28;20057;-72
2023/11/26 03:08:28;;;;;;;3.22;2.13;;;;;;;-1.88;79.55;98604.13;6174874;28;20057;-72
2023/11/26 03:14:51;;;;;;;2.45;1.83;;;;;;;-1.74;79.20;98606.22;6174283;28;20021;-72
2023/11/26 03:17:52;;;;;;;4.15;2.67;;;;;;;-1.66;80.10;98609.34;6174777;28;20055;-73
2023/11/26 03:20:54;;;;;;;2.97;1.77;;;;;;;-1.74;79.58;98619.00;6173510;28;20054;-72
2023/11/26 03:23:59;;;;;;;4.45;2.10;;;;;;;-1.77;80.43;98610.59;6174723;28;20094;-75
2023/11/26 03:27:00;;;;;;;5.18;2.42;;;;;;;-1.87;80.87;98613.47;6173246;28;20117;-72
2023/11/26 03:30:01;;;;;;;2.58;2.03;;;;;;;-1.80;80.55;98613.28;6172454;28;20445;-75
2023/11/26 03:33:02;;;;;;;7.85;3.05;;;;;;;-1.85;80.37;98616.00;6172247;28;20414;-73
2023/11/26 03:36:03;;;;;;;4.55;2.72;;;;;;;-1.73;80.91;98619.84;6173659;28;20051;-72
2023/11/26 03:39:05;;;;;;;4.85;2.38;;;;;;;-1.77;80.61;98623.38;6173966;28;20057;-73
2023/11/26 03:42:05;;;;;;;5.07;2.78;;;;;;;-1.80;80.47;98631.16;6174069;28;20137;-75
2023/11/26 03:45:07;;;;;;;4.38;2.33;;;;;;;-1.86;81.57;98633.03;6173100;28;20042;-75
2023/11/26 03:48:09;;;;;;;2.35;2.00;;;;;;;-1.90;81.28;98635.75;6174126;28;20066;-74
2023/11/26 03:51:15;;;;;;;2.70;1.92;;;;;;;-1.90;81.54;98626.34;6173014;28;20061;-73
2023/11/26 03:54:15;;;;;;;4.30;2.83;;;;;;;-1.89;81.66;98642.53;6173278;28;20062;-72
2023/11/26 03:57:16;;;;;;;4.22;2.50;;;;;;;-1.79;80.99;98653.28;6174230;28;20046;-75
2023/11/26 04:00:18;;;;;;;3.45;2.15;;;;;;;-1.79;82.14;98661.81;6172657;28;20061;-72
2023/11/26 04:03:21;;;;;;;2.00;1.58;;;;;;;-1.80;81.58;98664.41;6173250;28;20066;-72
2023/11/26 04:06:24;;;;;;;4.47;1.65;;;;;;;-1.97;81.92;98652.19;6172780;28;20116;-72
2023/11/26 04:09:26;;;;;;;6.38;2.55;;;;;;;-1.89;81.45;98655.31;6174118;28;20054;-72
2023/11/26 04:12:28;;;;;;;6.30;2.22;;;;;;;-1.94;81.91;98655.44;6172023;28;20116;-73
2023/11/26 04:15:31;;;;;;;5.10;3.05;;;;;;;-2.07;82.47;98656.75;6188345;28;20130;-73
2023/11/26 04:18:32;;;;;;;4.97;2.20;;;;;;;-2.11;82.66;98644.94;6172914;28;20058;-75
2023/11/26 04:21:33;;;;;;;5.32;2.92;;;;;;;-1.96;82.64;98656.41;6173791;28;20055;-73
2023/11/26 04:24:34;;;;;;;5.25;2.65;;;;;;;-1.95;82.45;98663.19;6173785;28;20482;-75
2023/11/26 04:27:35;;;;;;;3.15;2.47;;;;;;;-2.04;82.30;98664.31;6174074;28;20059;-72
2023/11/26 04:30:39;;;;;;;4.60;2.50;;;;;;;-2.01;82.52;98664.22;6173705;28;20089;-72
2023/11/26 04:33:40;;;;;;;15.13;2.83;;;;;;;-2.01;82.80;98656.56;6173623;28;20516;-71
2023/11/26 04:36:41;;;;;;;2.90;2.40;;;;;;;-2.01;82.53;98656.56;6172381;28;20047;-73
2023/11/26 04:39:42;;;;;;;9.73;2.58;;;;;;;-2.03;82.64;98668.53;6172215;28;20185;-73
2023/11/26 04:42:43;;;;;;;2.30;1.65;;;;;;;-2.07;82.47;98672.09;6173727;28;20054;-72
2023/11/26 04:45:44;;;;;;;4.72;2.55;;;;;;;-2.07;82.75;98677.19;6172390;28;20055;-72
2023/11/26 04:48:45;;;;;;;5.68;3.00;;;;;;;-2.20;83.20;98684.41;6173419;28;20572;-73
2023/11/26 04:51:47;;;;;;;3.78;2.63;;;;;;;-2.12;83.52;98676.50;6173441;28;20061;-75
2023/11/26 04:54:48;;;;;;;7.82;3.67;;;;;;;-2.19;83.85;98680.13;6176991;28;20490;-72
2023/11/26 04:57:49;;;;;;;2.80;2.05;;;;;;;-2.10;83.73;98679.84;6176921;28;20057;-72
2023/11/26 05:00:52;;;;;;;1.83;1.70;;;;;;;-2.04;82.93;98683.06;6176679;28;20109;-72
2023/11/26 05:03:55;;;;;;;3.72;2.03;;;;;;;-2.04;82.34;98688.16;6178163;28;20130;-75
2023/11/26 05:06:56;;;;;;;7.60;3.38;;;;;;;-2.06;82.93;98681.41;6177875;28;20055;-72
2023/11/26 05:09:59;;;;;;;4.20;2.15;;;;;;;-2.13;83.23;98693.56;6177927;28;20138;-71
2023/11/26 05:13:00;;;;;;;5.38;3.10;;;;;;;-2.34;84.52;98691.66;6175723;28;20047;-72
2023/11/26 05:16:04;;;;;;;7.10;3.50;;;;;;;-2.17;84.53;98697.09;6177105;28;20121;-75
2023/11/26 05:19:05;;;;;;;7.00;3.83;;;;;;;-2.24;84.51;98703.28;6177473;28;20508;-76
2023/11/26 05:22:06;;;;;;;5.28;3.13;;;;;;;-2.17;84.54;98714.16;6176063;28;20058;-76
2023/11/26 05:25:08;;;;;;;3.22;2.50;;;;;;;-2.04;84.39;98712.88;6177306;28;20461;-75
2023/11/26 05:28:09;;;;;;;2.40;1.70;;;;;;;-1.99;84.46;98715.31;6177498;28;20055;-75
2023/11/26 05:31:11;;;;;;;3.97;2.92;;;;;;;-1.94;83.90;98711.69;6177263;28;20524;-72
2023/11/26 05:34:14;;;;;;;;;;;;;;;-1.94;83.33;98711.69;6176474;28;20055;-72
2023/11/26 05:37:16;;;;;;;1.92;1.70;;;;;;;-2.05;83.54;98704.38;6177399;28;20424;-72
2023/11/26 05:40:20;;;;;;;4.63;3.10;;;;;;;-2.08;83.90;98714.72;6175603;28;20085;-72
2023/11/26 05:43:21;;;;;;;2.13;1.75;;;;;;;-2.15;83.79;98710.66;6191940;28;20425;-72
2023/11/26 05:46:22;;;;;;;7.47;2.85;;;;;;;-2.14;83.20;98714.91;6176972;28;20058;-75
2023/11/26 05:49:23;;;;;;;4.95;2.65;;;;;;;-2.14;83.14;98708.94;6175592;28;20118;-75
2023/11/26 05:52:24;;;;;;;4.95;3.00;;;;;;;-2.15;83.46;98717.50;6175432;28;20121;-72
2023/11/26 05:55:27;;;;;;;7.68;2.90;;;;;;;-2.12;83.49;98720.78;6164709;28;20526;-72
2023/11/26 05:58:28;;;;;;;4.80;2.75;;;;;;;-2.13;83.51;98728.50;6156861;28;20410;-72
2023/11/26 06:01:29;;;;;;;5.63;3.20;;;;;;;-2.27;83.44;98728.91;6167280;28;20077;-72
2023/11/26 06:04:30;;;;;;;5.97;3.08;;;;;;;-2.30;83.62;98729.84;6151674;28;20055;-75
2023/11/26 06:07:33;;;;;;;4.10;3.22;;;;;;;-2.32;84.12;98729.06;6170046;28;20422;-75
2023/11/26 06:10:35;;;;;;;6.18;3.28;;;;;;;-2.26;83.53;98730.59;6195809;28;20097;-76
2023/11/26 06:13:38;;;;;;;8.10;3.92;;;;;;;-2.27;83.88;98734.84;6161218;28;20490;-73
2023/11/26 06:16:42;;;;;;;4.85;3.40;;;;;;;-2.28;83.98;98725.53;6175621;28;20482;-76
2023/11/26 06:19:46;;;;;;;11.55;4.47;;;;;;;-2.22;83.49;98729.63;6163888;28;20062;-76
2023/11/26 06:22:47;;;;;;;12.60;5.80;;;;;;;-2.21;84.06;98721.06;6160746;28;20134;-75
2023/11/26 06:25:48;;;;;;;11.57;4.97;;;;;;;-2.20;82.76;98719.34;6166999;28;20434;-75
2023/11/26 06:28:49;;;;;;;7.40;4.85;;;;;;;-2.16;82.88;98720.91;6160811;28;20130;-75
2023/11/26 06:31:50;;;;;;;8.73;5.00;;;;;;;-2.23;82.06;98727.94;6168346;28;20062;-71
2023/11/26 06:34:51;;;;;;;14.07;5.00;;;;;;;-2.04;82.14;98729.06;6173570;28;20130;-75
2023/11/26 06:37:52;;;;;;;10.20;4.97;;;;;;;-1.83;81.14;98726.72;6153827;28;20051;-75
2023/11/26 06:40:56;;;;;;;8.88;5.43;;;;;;;-1.79;80.78;98730.84;6164180;28;20481;-76
2023/11/26 06:43:58;;;;;;;9.88;4.43;;;;;;;-1.78;80.80;98732.50;6175600;28;20047;-75
2023/11/26 06:46:59;;;;;;;6.80;3.92;;;;;;;-1.62;80.87;98741.38;6173423;28;20049;-76
2023/11/26 06:50:00;;;;;;;8.05;4.20;;;;;;;-1.59;80.88;98739.59;6176513;28;20083;-73
2023/11/26 06:53:01;;;;;;;9.60;3.92;;;;;;;-1.58;80.31;98739.56;6164866;28;20054;-72
2023/11/26 06:56:01;;;;;;;6.03;2.80;;;;;;;-1.26;80.42;98748.69;6158803;28;20051;-73
2023/11/26 06:59:05;;;;;;;10.25;3.55;;;;;;;-1.36;80.39;98749.06;6162561;28;20115;-76
2023/11/26 07:02:09;;;;;;;6.80;3.72;;;;;;;-1.08;80.08;98762.59;6159877;28;20059;-73
2023/11/26 07:05:12;;;;;;;6.70;3.58;;;;;;;-0.98;80.47;98759.75;6180927;28;20495;-72
2023/11/26 07:08:18;;;;;;;8.32;4.25;;;;;;;-1.11;80.17;98770.41;6165138;28;20051;-72
2023/11/26 07:11:24;;;;;;;7.63;3.45;;;;;;;-0.91;80.10;98779.94;6160962;28;20117;-72
2023/11/26 07:14:32;;;;;;;6.60;3.47;;;;;;;-0.92;80.03;98775.72;6148812;28;20055;-72
2023/11/26 07:17:39;;;;;;;5.95;3.80;;;;;;;-0.90;80.07;98776.50;6149604;28;20557;-75
2023/11/26 07:20:40;;;;;;;8.48;3.97;;;;;;;-1.12;80.28;98783.25;6167337;28;20137;-72
2023/11/26 07:23:42;;;;;;;4.18;2.78;;;;;;;-0.87;80.82;98796.88;6174026;28;20332;-72
2023/11/26 07:26:43;;;;;;;10.40;5.30;;;;;;;-0.74;80.32;98797.31;6194710;28;20456;-75
2023/11/26 07:29:44;;;;;;;8.25;4.10;;;;;;;-0.70;81.01;98811.69;6196865;28;20140;-73
2023/11/26 07:32:45;;;;;;;6.10;4.10;;;;;;;-0.72;80.89;98810.91;6197963;28;20050;-72
2023/11/26 07:35:47;;;;;;;8.63;3.63;;;;;;;-0.62;81.12;98819.06;6196658;28;20050;-73
2023/11/26 07:38:49;;;;;;;8.48;4.05;;;;;;;-0.62;80.94;98826.75;6197173;28;20050;-73
2023/11/26 07:41:50;;;;;;;8.35;4.10;;;;;;;-0.63;80.79;98825.94;6196377;28;20414;-73
2023/11/26 07:44:52;;;;;;;6.88;4.30;;;;;;;-0.84;81.30;98832.63;6196404;28;20057;-72
2023/11/26 07:47:53;;;;;;;5.60;3.53;;;;;;;-0.65;81.70;98840.53;6197488;28;20050;-73
2023/11/26 07:50:56;;;;;;;5.68;3.72;;;;;;;-0.53;81.11;98831.59;6197472;28;20402;-72
2023/11/26 07:53:57;;;;;;;5.55;3.72;;;;;;;-0.62;80.30;98831.88;6196464;28;20104;-75
2023/11/26 07:56:58;;;;;;;12.10;4.80;;;;;;;-0.52;80.29;98828.13;6196126;28;20125;-75
2023/11/26 08:00:00;;;;;;;8.32;4.20;;;;;;;-0.64;81.32;98831.09;6196649;28;20394;-72
2023/11/26 08:03:00;;;;;;;6.78;4.10;;;;;;;-0.25;80.55;98835.72;6172448;28;20126;-73
2023/11/26 08:06:02;;;;;;;5.53;3.13;;;;;;;-0.49;79.76;98838.28;6163168;28;20046;-76
2023/11/26 08:09:08;;;;;;;8.82;5.18;;;;;;;-0.07;79.88;98847.03;6171477;28;20171;-75
2023/11/26 08:12:13;;;;;;;8.10;4.28;;;;;;;-0.05;79.58;98853.75;6162889;28;20495;-72
2023/11/26 08:15:16;;;;;;;11.27;4.57;;;;;;;0.01;79.77;98850.16;6149093;28;20043;-72
2023/11/26 08:18:17;;;;;;;12.55;4.93;;;;;;;0.04;80.03;98857.72;6163928;28;20524;-72
2023/11/26 08:21:18;;;;;;;9.75;5.53;;;;;;;-0.07;80.36;98868.38;6166368;28;20065;-72
2023/11/26 08:24:19;;;;;;;7.43;4.30;;;;;;;-0.11;80.14;98879.63;6172982;28;20055;-76
2023/11/26 08:27:23;;;;;;;15.35;4.30;;;;;;;-0.21;80.67;98884.28;6175009;28;20138;-75
2023/11/26 08:30:30;;;;;;;7.15;4.55;;;;;;;-0.21;81.52;98893.66;6173704;28;20458;-75
2023/11/26 08:33:37;;;;;;;7.32;4.30;;;;;;;-0.06;80.93;98895.69;6177594;28;20542;-72
2023/11/26 08:36:42;;;;;;;9.57;5.20;;;;;;;-0.03;79.83;98900.72;6153965;28;20051;-75
2023/11/26 08:39:45;;;;;;;12.88;7.10;;;;;;;-0.27;80.19;98910.13;6153642;28;20082;-72
2023/11/26 08:42:47;;;;;;;15.30;6.15;;;;;;;-0.18;79.26;98908.97;6168594;28;20055;-73
2023/11/26 08:45:48;;;;;;;10.85;4.97;;;;;;;0.01;78.35;98903.19;6158426;28;20043;-75
2023/11/26 08:48:52;;;;;;;18.25;6.72;;;;;;;-0.10;78.24;98896.72;6176005;28;20097;-75
2023/11/26 08:51:54;;;;;;;9.70;4.47;;;;;;;0.20;77.66;98904.16;6177098;28;20074;-75
2023/11/26 08:54:55;;;;;;;8.00;3.45;;;;;;;-0.11;77.92;98914.69;6177310;28;20117;-76
2023/11/26 08:57:56;;;;;;;9.68;4.18;;;;;;;0.19;77.22;98920.47;6177223;28;20054;-73
2023/11/26 09:00:59;;;;;;;7.57;4.82;;;;;;;0.40;77.40;98913.69;6192252;28;20054;-73
2023/11/26 09:04:01;;;;;;;13.90;5.55;;;;;;;0.50;76.73;98925.28;6173781;28;20134;-72
2023/11/26 09:07:04;;;;;;;13.05;4.90;;;;;;;0.59;76.52;98919.78;6151790;29;20078;-73
2023/11/26 09:10:09;;;;;;;9.38;5.57;;;;;;;0.65;75.70;98923.84;6167794;28;20420;-74
2023/11/26 09:13:12;;;;;;;9.27;5.40;;;;;;;0.77;75.24;98917.41;6151534;29;20491;-72
2023/11/26 09:16:13;;;;;;;7.95;5.10;;;;;;;0.73;75.45;98924.41;6152801;28;20078;-72
2023/11/26 09:19:14;;;;;;;10.30;5.35;;;;;;;0.72;76.09;98925.31;6156788;28;20106;-76
2023/11/26 09:22:14;;;;;;;11.30;5.80;;;;;;;1.13;75.07;98917.69;6167620;28;20063;-73
2023/11/26 09:25:16;;;;;;;17.25;7.07;;;;;;;1.24;75.00;98921.56;6152576;28;20112;-75
2023/11/26 09:28:17;;;;;;;11.27;5.70;;;;;;;1.25;74.68;98918.06;6162669;28;20057;-76
2023/11/26 09:31:18;;;;;;;10.15;4.95;;;;;;;1.31;74.10;98918.66;6165950;28;20050;-76
2023/11/26 09:34:19;;;;;;;7.60;4.97;;;;;;;1.14;74.01;98923.66;6172243;28;20059;-75
2023/11/26 09:37:20;;;;;;;8.82;5.10;;;;;;;0.89;74.52;98928.94;6164117;28;20046;-75
2023/11/26 09:40:21;;;;;;;11.02;4.97;;;;;;;0.86;74.95;98926.47;6205888;28;20432;-73
2023/11/26 09:43:25;;;;;;;11.90;5.88;;;;;;;1.09;74.88;98923.84;6193010;28;20062;-72
2023/11/26 09:46:34;;;;;;;8.15;5.18;;;;;;;0.94;74.97;98929.59;6200472;28;20104;-76
2023/11/26 09:49:35;;;;;;;8.82;4.88;;;;;;;1.23;74.47;98928.41;6198712;28;20065;-76
2023/11/26 09:52:40;;;;;;;7.93;4.40;;;;;;;1.24;74.03;98924.13;6198842;28;20409;-72
2023/11/26 09:55:42;;;;;;;9.52;4.53;;;;;;;1.52;73.74;98931.50;6198731;28;20496;-73
2023/11/26 09:58:43;;;;;;;10.18;5.28;;;;;;;1.70;73.08;98927.34;6198554;28;20453;-76
2023/11/26 10:01:44;;;;;;;7.88;5.18;;;;;;;1.75;72.70;98927.97;6198606;28;20404;-75
2023/11/26 10:04:50;;;;;;;14.00;5.10;;;;;;;1.78;71.86;98931.25;6198442;28;20050;-75
2023/11/26 10:07:52;;;;;;;7.25;4.85;;;;;;;2.07;72.42;98921.44;6199449;28;20046;-75
2023/11/26 10:10:53;;;;;;;9.48;4.85;;;;;;;2.06;71.89;98926.63;6198359;28;20050;-72
2023/11/26 10:13:54;;;;;;;9.02;5.25;;;;;;;2.01;72.08;98932.00;6187418;28;20085;-75
2023/11/26 10:17:07;;;;;;;15.47;7.07;;;;;;;2.05;72.40;98925.81;6178967;28;20050;-75
2023/11/26 10:20:18;;;;;;;13.40;7.38;;;;;;;2.32;72.28;98921.16;6174261;28;20089;-73
2023/11/26 10:23:35;;;;;;;19.43;11.03;;;;;;;2.31;71.48;98927.22;6173491;28;20065;-75
2023/11/26 10:26:36;;;;;;;15.88;9.15;;;;;;;2.26;71.83;98920.59;6173251;28;20050;-75
2023/11/26 10:29:42;;;;;;;23.23;10.18;;;;;;;2.13;72.00;98923.72;6189975;28;20101;-72
2023/11/26 10:33:15;;;;;;;12.90;7.43;;;;;;;2.41;71.84;98920.75;6173928;28;20055;-72
2023/11/26 10:36:32;;;;;;;5.95;3.67;;;;;;;2.56;71.44;98928.69;6174793;28;20051;-76
2023/11/26 10:39:32;;;;;;;9.15;4.80;;;;;;;2.63;71.36;98917.19;6173811;28;20051;-75
2023/11/26 10:42:36;;;;;;;9.85;4.25;;;;;;;2.34;71.47;98914.19;6173418;28;20043;-75
2023/11/26 10:45:39;;;;;;;11.32;5.57;;;;;;;2.54;71.42;98922.78;6173516;28;20097;-73
2023/11/26 10:48:45;;;;;;;8.77;4.15;;;;;;;2.23;71.84;98934.47;6174414;28;20066;-76
2023/11/26 10:52:00;;;;;;;11.38;5.35;;;;;;;2.04;72.35;98929.31;6173414;28;20062;-76
2023/11/26 10:55:24;;;;;;;11.40;4.90;;;;;;;2.66;72.27;98926.50;6193107;28;20141;-72
2023/11/26 10:58:30;;;;;;;8.25;4.55;;;;;;;2.62;72.28;98938.69;6198396;28;20060;-72
2023/11/26 11:01:33;;;;;;;7.78;4.30;;;;;;;2.20;72.84;98934.59;6197438;28;20065;-76
2023/11/26 11:04:36;;;;;;;8.63;5.05;;;;;;;2.68;72.16;98945.28;6198346;28;20058;-75
2023/11/26 11:07:38;;;;;;;8.80;4.95;;;;;;;2.39;72.80;98943.16;6198142;28;20505;-76
2023/11/26 11:11:00;;;;;;;11.85;5.05;;;;;;;2.40;73.18;98942.25;6197041;28;20394;-73
2023/11/26 11:14:02;;;;;;;9.50;4.15;;;;;;;2.67;72.62;98949.63;6198012;28;20109;-76
2023/11/26 11:17:05;;;;;;;9.25;3.95;;;;;;;2.63;73.04;98954.06;6197008;28;20061;-73
2023/11/26 11:20:07;;;;;;;7.93;3.88;;;;;;;2.45;73.13;98954.06;6180900;28;20414;-76
2023/11/26 11:23:32;;;;;;;12.48;4.72;;;;;;;2.62;73.21;98957.56;6196839;28;20050;-76
2023/11/26 11:26:47;;;;;;;10.63;4.47;;;;;;;2.39;73.16;98956.03;6196673;28;20503;-76
2023/11/26 11:29:48;;;;;;;12.15;6.15;;;;;;;2.46;73.79;98966.06;6196690;28;20050;-76
2023/11/26 11:33:06;;;;;;;11.80;6.03;;;;;;;2.66;73.80;98967.72;6196748;28;20061;-76
2023/11/26 11:36:07;;;;;;;24.17;5.68;;;;;;;2.95;72.37;98958.66;6197475;28;20038;-76
2023/11/26 11:39:09;;;;;;;15.15;6.75;;;;;;;2.82;72.20;98972.09;6197687;28;20456;-76
2023/11/26 11:42:11;;;;;;;12.82;6.05;;;;;;;3.20;71.16;98966.88;6196381;28;20050;-77
2023/11/26 11:45:31;;;;;;;10.65;4.70;;;;;;;3.49;70.56;98969.78;6196115;28;20516;-76
2023/11/26 11:48:38;;;;;;;5.35;3.13;;;;;;;3.79;68.91;98971.75;6197273;28;20050;-74
2023/11/26 11:51:42;;;;;;;6.50;3.20;;;;;;;3.99;67.33;98973.31;6185398;28;20097;-73
2023/11/26 11:54:58;;;;;;;6.45;2.83;;;;;;;4.38;66.19;98974.72;6162921;28;20403;-74
2023/11/26 11:58:10;;;;;;;9.02;2.47;;;;;;;4.12;65.21;98974.34;6169377;28;20042;-76
2023/11/26 12:01:14;;;;;;;6.70;3.22;;;;;;;3.82;64.87;98984.50;6171537;28;20569;-77
2023/11/26 12:04:15;;;;;;;5.07;2.83;;;;;;;3.29;65.02;98977.66;6173304;28;20089;-76
2023/11/26 12:07:19;;;;;;;5.93;3.50;;;;;;;3.30;65.81;98984.50;6171907;28;20069;-77
2023/11/26 12:10:26;;;;;;;5.35;3.30;;;;;;;3.14;66.53;98995.53;6173245;28;20050;-76
2023/11/26 12:13:29;;;;;;;7.35;3.00;;;;;;;2.91;66.61;99004.34;6171839;28;20058;-76
2023/11/26 12:16:30;;;;;;;5.55;2.63;;;;;;;2.77;66.66;99002.38;6173201;28;20047;-74
2023/11/26 12:19:42;;;;;;;5.78;3.35;;;;;;;2.81;67.06;98995.34;6156460;28;20047;-76
2023/11/26 12:22:44;;;;;;;7.38;3.65;;;;;;;3.06;66.51;99001.94;6158598;28;20062;-76
2023/11/26 12:25:52;;;;;;;14.30;5.88;;;;;;;3.42;65.99;99007.94;6165005;28;20093;-76
2023/11/26 12:28:53;;;;;;;7.32;3.85;;;;;;;3.79;64.88;99008.72;6172862;28;20493;-76
2023/11/26 12:32:05;;;;;;;6.93;2.92;;;;;;;3.80;64.64;99007.78;6172892;28;20058;-73
2023/11/26 12:35:11;;;;;;;5.18;2.80;;;;;;;3.46;64.94;99006.03;6172636;28;20125;-73
2023/11/26 12:38:14;;;;;;;6.63;3.38;;;;;;;3.26;65.23;99001.84;6178455;28;20049;-77
2023/11/26 12:41:15;;;;;;;;;;;;;;;3.24;66.32;99008.81;6196307;28;20129;-73
2023/11/26 12:44:23;;;;;;;3.70;2.30;;;;;;;3.17;65.89;99007.41;6196520;28;20380;-73
2023/11/26 12:47:25;;;;;;;4.55;2.40;;;;;;;3.88;64.87;99017.72;6196641;28;20632;-73
2023/11/26 12:50:42;;;;;;;3.28;2.10;;;;;;;3.42;66.11;99018.25;6225158;28;20091;-73
2023/11/26 12:53:43;;;;;;;7.97;3.03;;;;;;;3.84;65.28;99017.03;6193644;28;20050;-73
2023/11/26 12:56:45;;;;;;;8.93;2.47;;;;;;;3.89;65.45;99023.72;6167378;28;20051;-76
2023/11/26 12:59:48;;;;;;;2.80;2.00;;;;;;;3.90;65.06;99022.81;6160015;28;20113;-76
2023/11/26 13:03:05;;;;;;;3.75;2.03;;;;;;;3.80;64.74;99022.44;6164187;28;20051;-77
2023/11/26 13:06:08;;;;;;;6.40;2.33;;;;;;;4.54;63.38;99026.44;6182327;28;20078;-76
2023/11/26 13:09:09;;;;;;;11.40;3.92;;;;;;;4.71;62.83;99026.34;6170697;28;20058;-77
2023/11/26 13:12:10;;;;;;;4.78;2.47;;;;;;;4.68;61.87;99026.53;6166697;28;20063;-76
2023/11/26 13:15:14;;;;;;;2.30;1.75;;;;;;;3.96;60.76;99035.41;6175544;28;20402;-77
2023/11/26 13:18:16;;;;;;;5.47;1.73;;;;;;;3.71;59.83;99030.66;6176771;28;20462;-77
2023/11/26 13:21:17;;;;;;;3.55;2.10;;;;;;;3.88;59.46;99045.28;6176861;28;20133;-74
2023/11/26 13:24:18;;;;;;;1.70;1.60;;;;;;;3.63;58.44;99031.84;6175224;28;20407;-73
2023/11/26 13:27:21;;;;;;;4.50;1.90;;;;;;;3.65;58.61;99049.00;6174925;28;20053;-73
2023/11/26 13:30:22;;;;;;;2.95;1.65;;;;;;;3.39;58.91;99054.47;6211701;28;20390;-72
2023/11/26 13:33:23;;;;;;;6.65;2.28;;;;;;;3.17;60.08;99054.69;6199127;28;20046;-74
2023/11/26 13:36:24;;;;;;;5.03;2.17;;;;;;;3.34;59.07;99065.94;6198950;28;20046;-78
2023/11/26 13:39:25;;;;;;;12.20;5.07;;;;;;;3.18;59.29;99069.22;6200298;28;20054;-74
2023/11/26 13:42:26;;;;;;;4.78;2.35;;;;;;;3.08;58.96;99067.16;6198839;28;20137;-73
2023/11/26 13:45:26;;;;;;;4.85;1.58;;;;;;;3.10;59.68;99066.16;6198744;28;20116;-74
2023/11/26 13:48:28;;;;;;;3.00;1.90;;;;;;;3.19;60.15;99072.63;6191765;28;20072;-74
2023/11/26 13:51:29;;;;;;;2.25;1.55;;;;;;;2.99;58.53;99063.25;6186934;28;20354;-77
2023/11/26 13:54:30;;;;;;;2.25;1.08;;;;;;;3.20;59.75;99064.00;6172293;28;20054;-77
2023/11/26 13:57:31;;;;;;;4.85;1.60;;;;;;;2.82;60.06;99067.44;6156809;28;20054;-77
2023/11/26 14:00:31;;;;;;;7.60;3.22;;;;;;;2.85;59.27;99079.34;6157144;28;20770;-73
2023/11/26 14:03:33;;;;;;;3.00;1.75;;;;;;;2.74;59.79;99084.13;6174235;28;20051;-74
2023/11/26 14:06:34;;;;;;;2.70;1.80;;;;;;;2.65;60.38;99077.63;6156338;28;20038;-73
2023/11/26 14:09:35;;;;;;;2.35;1.77;;;;;;;2.62;60.62;99080.34;6175372;28;20050;-73
2023/11/26 14:12:37;;;;;;;5.03;1.90;;;;;;;2.44;61.22;99082.00;6198260;28;20046;-74
2023/11/26 14:15:40;;;;;;;3.47;2.10;;;;;;;2.35;61.83;99090.13;6198406;28;20057;-73
2023/11/26 14:18:40;;;;;;;4.78;2.97;;;;;;;2.14;62.02;99096.97;6198953;28;20404;-74
2023/11/26 14:21:42;;;;;;;35.28;14.40;;;;;;;2.21;62.52;99099.25;6198403;28;20054;-73
2023/11/26 14:24:45;;;;;;;31.15;13.82;;;;;;;2.13;62.92;99087.59;6198861;28;20046;-77
2023/11/26 14:27:48;;;;;;;16.75;7.45;;;;;;;2.12;63.32;99109.06;6199357;28;20054;-77
2023/11/26 14:30:49;;;;;;;12.82;7.68;;;;;;;2.03;63.59;99104.31;6171730;28;20059;-77